Аэропорт: Гостомель. Киев

ICAO: UKKM

METAR:
2020-06-01 01:00:00
UKKM 010100Z AUTO 02005MPS 8000 -SHRA OVC007CB 11/11 Q1007
METAR:
2020-05-31 05:55:00
TAF UKKM 310555Z 3106/0106 16004G09MPS 9999 BKN010 BKN020 TEMPO 3106/3118 19006G12MPS 2100 -SHRA BKN005 SCT015CB PROB40 TEMPO 3108/3117 VRB10G17MPS 1500 TSRAGR BKN003 BKN010CB BECMG 3118/3120 01005G10MPS 4000 BR BKN007 TEMPO 3120/0106 1000 -SHRA BR BKN003 SCT010CB